createdAt,value
2023-05-24T00:00:06.229Z,8.70
2023-05-24T00:01:06.224Z,8.68
2023-05-24T00:02:06.214Z,8.67
2023-05-24T00:03:06.218Z,8.67
2023-05-24T00:04:06.349Z,8.67
2023-05-24T00:05:06.197Z,8.68
2023-05-24T00:06:06.173Z,8.67
2023-05-24T00:07:06.130Z,8.65
2023-05-24T00:08:06.148Z,8.64
2023-05-24T00:09:06.101Z,8.61
2023-05-24T00:10:06.117Z,8.58
2023-05-24T00:11:06.113Z,8.54
2023-05-24T00:12:06.110Z,8.54
2023-05-24T00:13:06.068Z,8.54
2023-05-24T00:14:06.087Z,8.55
2023-05-24T00:15:06.036Z,8.55
2023-05-24T00:16:06.093Z,8.54
2023-05-24T00:17:06.036Z,8.57
2023-05-24T00:18:06.134Z,8.55
2023-05-24T00:19:06.065Z,8.55
2023-05-24T00:20:07.383Z,8.57
2023-05-24T00:21:06.014Z,8.54
2023-05-24T00:22:06.009Z,8.54
2023-05-24T00:23:05.961Z,8.52
2023-05-24T00:24:05.985Z,8.50
2023-05-24T00:25:05.955Z,8.47
2023-05-24T00:26:05.980Z,8.46
2023-05-24T00:27:05.924Z,8.46
2023-05-24T00:28:05.945Z,8.43
2023-05-24T00:29:05.895Z,8.42
2023-05-24T00:30:05.923Z,8.40
2023-05-24T00:31:05.902Z,8.37
2023-05-24T00:32:05.967Z,8.37
2023-05-24T00:33:05.905Z,8.37
2023-05-24T00:34:05.887Z,8.34
2023-05-24T00:35:05.840Z,8.29
2023-05-24T00:36:05.867Z,8.25
2023-05-24T00:37:05.815Z,8.25
2023-05-24T00:38:05.844Z,8.22
2023-05-24T00:39:05.807Z,8.20
2023-05-24T00:40:05.800Z,8.18
2023-05-24T00:41:05.781Z,8.18
2023-05-24T00:42:05.792Z,8.20
2023-05-24T00:43:05.753Z,8.18
2023-05-24T00:44:05.766Z,8.14
2023-05-24T00:45:05.725Z,8.10
2023-05-24T00:46:05.800Z,8.12
2023-05-24T00:47:05.724Z,8.07
2023-05-24T00:48:05.759Z,8.03
2023-05-24T00:49:05.693Z,8.00
2023-05-24T00:50:05.700Z,7.95
2023-05-24T00:51:05.685Z,7.92
2023-05-24T00:52:05.681Z,7.91
2023-05-24T00:53:05.645Z,7.89
2023-05-24T00:54:05.662Z,7.86
2023-05-24T00:55:05.630Z,7.84
2023-05-24T00:56:05.659Z,7.84
2023-05-24T00:57:05.608Z,7.84
2023-05-24T00:58:05.626Z,7.86
2023-05-24T00:59:05.586Z,7.86
2023-05-24T01:00:05.592Z,7.88
2023-05-24T01:01:05.626Z,7.85
2023-05-24T01:02:05.606Z,7.82
2023-05-24T01:03:05.666Z,7.81
2023-05-24T01:04:05.596Z,7.76
2023-05-24T01:05:05.553Z,7.81
2023-05-24T01:06:05.572Z,7.84
2023-05-24T01:07:05.501Z,7.85
2023-05-24T01:08:05.507Z,7.84
2023-05-24T01:09:05.480Z,7.82
2023-05-24T01:10:05.512Z,7.82
2023-05-24T01:11:05.469Z,7.81
2023-05-24T01:12:05.491Z,7.82
2023-05-24T01:13:05.456Z,7.84
2023-05-24T01:14:05.453Z,7.79
2023-05-24T01:15:05.413Z,7.79
2023-05-24T01:16:05.527Z,7.77
2023-05-24T01:17:05.402Z,7.76
2023-05-24T01:18:05.519Z,7.74
2023-05-24T01:19:05.378Z,7.70
2023-05-24T01:20:05.432Z,7.69
2023-05-24T01:21:05.349Z,7.69
2023-05-24T01:22:05.397Z,7.67
2023-05-24T01:23:05.340Z,7.66
2023-05-24T01:24:05.344Z,7.66
2023-05-24T01:25:05.313Z,7.63
2023-05-24T01:26:05.321Z,7.66
2023-05-24T01:27:05.318Z,7.63
2023-05-24T01:28:05.313Z,7.62
2023-05-24T01:29:05.275Z,7.62
2023-05-24T01:30:05.290Z,7.58
2023-05-24T01:31:05.313Z,7.55
2023-05-24T01:32:05.282Z,7.54
2023-05-24T01:33:05.259Z,7.50
2023-05-24T01:34:05.244Z,7.48
2023-05-24T01:35:05.201Z,7.47
2023-05-24T01:36:05.226Z,7.42
2023-05-24T01:37:05.211Z,7.42
2023-05-24T01:38:05.197Z,7.44
2023-05-24T01:39:05.160Z,7.39
2023-05-24T01:40:05.180Z,7.41
2023-05-24T01:41:05.159Z,7.41
2023-05-24T01:42:05.186Z,7.39
2023-05-24T01:43:05.118Z,7.36
2023-05-24T01:44:05.124Z,7.34
2023-05-24T01:45:05.105Z,7.33
2023-05-24T01:46:05.103Z,7.26
2023-05-24T01:47:05.204Z,7.21
2023-05-24T01:48:05.195Z,7.21
2023-05-24T01:49:05.054Z,7.21
2023-05-24T01:50:05.061Z,7.19
2023-05-24T01:51:05.033Z,7.19
2023-05-24T01:52:05.076Z,7.19
2023-05-24T01:53:05.044Z,7.18
2023-05-24T01:54:05.043Z,7.18
2023-05-24T01:55:04.976Z,7.15
2023-05-24T01:56:05.023Z,7.14
2023-05-24T01:57:04.968Z,7.12
2023-05-24T01:58:05.003Z,7.09
2023-05-24T01:59:04.974Z,7.07
2023-05-24T02:00:04.987Z,7.05
2023-05-24T02:01:05.003Z,7.01
2023-05-24T02:02:04.957Z,6.96
2023-05-24T02:03:05.022Z,6.94
2023-05-24T02:04:04.929Z,6.96
2023-05-24T02:05:04.881Z,7.00
2023-05-24T02:06:04.927Z,7.01
2023-05-24T02:07:04.858Z,6.99
2023-05-24T02:08:04.883Z,6.96
2023-05-24T02:09:04.855Z,6.93
2023-05-24T02:10:04.856Z,6.89
2023-05-24T02:11:04.825Z,6.89
2023-05-24T02:12:04.877Z,6.87
2023-05-24T02:13:04.804Z,6.87
2023-05-24T02:14:04.818Z,6.90
2023-05-24T02:15:04.797Z,6.90
2023-05-24T02:16:04.814Z,6.91
2023-05-24T02:17:04.826Z,6.93
2023-05-24T02:18:04.801Z,6.90
2023-05-24T02:19:04.742Z,6.87
2023-05-24T02:20:04.798Z,6.83
2023-05-24T02:21:04.711Z,6.82
2023-05-24T02:22:04.741Z,6.78
2023-05-24T02:23:04.711Z,6.81
2023-05-24T02:24:04.751Z,6.79
2023-05-24T02:25:04.675Z,6.78
2023-05-24T02:26:04.686Z,6.75
2023-05-24T02:27:04.677Z,6.73
2023-05-24T02:28:04.679Z,6.69
2023-05-24T02:29:04.630Z,6.71
2023-05-24T02:30:04.684Z,6.69
2023-05-24T02:31:04.662Z,6.71
2023-05-24T02:32:04.633Z,6.72
2023-05-24T02:33:04.690Z,6.68
2023-05-24T02:34:04.604Z,6.69
2023-05-24T02:35:04.589Z,6.71
2023-05-24T02:36:04.628Z,6.71
2023-05-24T02:37:04.545Z,6.71
2023-05-24T02:38:04.572Z,6.68
2023-05-24T02:39:04.536Z,6.63
2023-05-24T02:40:04.542Z,6.63
2023-05-24T02:41:04.515Z,6.60
2023-05-24T02:42:04.552Z,6.57
2023-05-24T02:43:04.497Z,6.55
2023-05-24T02:44:04.508Z,6.54
2023-05-24T02:45:04.478Z,6.53
2023-05-24T02:46:04.507Z,6.54
2023-05-24T02:47:04.481Z,6.51
2023-05-24T02:48:04.576Z,6.51
2023-05-24T02:49:04.417Z,6.46
2023-05-24T02:50:04.452Z,6.46
2023-05-24T02:51:04.398Z,6.46
2023-05-24T02:52:04.423Z,6.48
2023-05-24T02:53:04.379Z,6.48
2023-05-24T02:54:04.412Z,6.48
2023-05-24T02:55:04.351Z,6.46
2023-05-24T02:56:04.357Z,6.43
2023-05-24T02:57:04.328Z,6.40
2023-05-24T02:58:04.352Z,6.39
2023-05-24T02:59:04.317Z,6.38
2023-05-24T03:00:04.341Z,6.33
2023-05-24T03:01:04.285Z,6.33
2023-05-24T03:02:04.427Z,6.30
2023-05-24T03:03:04.299Z,6.32
2023-05-24T03:04:04.368Z,6.30
2023-05-24T03:05:04.250Z,6.25
2023-05-24T03:06:04.304Z,6.24
2023-05-24T03:07:04.239Z,6.19
2023-05-24T03:08:04.224Z,6.14
2023-05-24T03:09:04.214Z,6.16
2023-05-24T03:10:04.208Z,6.14
2023-05-24T03:11:04.193Z,6.14
2023-05-24T03:12:04.220Z,6.11
2023-05-24T03:13:04.176Z,6.10
2023-05-24T03:14:04.163Z,6.05
2023-05-24T03:15:04.127Z,6.08
2023-05-24T03:16:04.268Z,6.08
2023-05-24T03:17:04.127Z,6.05
2023-05-24T03:18:04.282Z,6.06
2023-05-24T03:19:04.105Z,6.02
2023-05-24T03:20:04.157Z,5.99
2023-05-24T03:21:04.135Z,5.93
2023-05-24T03:22:04.078Z,5.92
2023-05-24T03:23:04.043Z,5.88
2023-05-24T03:24:04.092Z,5.85
2023-05-24T03:25:04.026Z,5.85
2023-05-24T03:26:04.047Z,5.85
2023-05-24T03:27:04.000Z,5.85
2023-05-24T03:28:04.245Z,5.84
2023-05-24T03:29:03.995Z,5.84
2023-05-24T03:30:04.028Z,5.84
2023-05-24T03:31:03.970Z,5.74
2023-05-24T03:32:03.998Z,5.67
2023-05-24T03:33:04.001Z,5.63
2023-05-24T03:34:03.949Z,5.62
2023-05-24T03:35:03.954Z,5.65
2023-05-24T03:36:03.937Z,5.65
2023-05-24T03:37:03.946Z,5.65
2023-05-24T03:38:03.890Z,5.66
2023-05-24T03:39:03.919Z,5.65
2023-05-24T03:40:03.906Z,5.65
2023-05-24T03:41:03.904Z,5.59
2023-05-24T03:42:03.875Z,5.58
2023-05-24T03:43:04.722Z,5.58
2023-05-24T03:44:03.838Z,5.59
2023-05-24T03:45:03.849Z,5.58
2023-05-24T03:46:03.856Z,5.58
2023-05-24T03:47:03.854Z,5.55
2023-05-24T03:48:03.845Z,5.56
2023-05-24T03:49:03.828Z,5.55
2023-05-24T03:50:03.787Z,5.56
2023-05-24T03:51:03.812Z,5.56
2023-05-24T03:52:03.790Z,5.55
2023-05-24T03:53:03.782Z,5.52
2023-05-24T03:54:03.783Z,5.51
2023-05-24T03:55:03.766Z,5.52
2023-05-24T03:56:03.727Z,5.52
2023-05-24T03:57:03.723Z,5.49
2023-05-24T03:58:03.718Z,5.49
2023-05-24T03:59:03.709Z,5.47
2023-05-24T04:00:10.198Z,5.44
2023-05-24T04:01:03.682Z,5.47
2023-05-24T04:02:04.369Z,5.48
2023-05-24T04:03:03.736Z,5.47
2023-05-24T04:04:03.692Z,5.48
2023-05-24T04:05:03.648Z,5.49
2023-05-24T04:06:03.658Z,5.52
2023-05-24T04:07:03.638Z,5.52
2023-05-24T04:08:03.650Z,5.52
2023-05-24T04:09:03.602Z,5.52
2023-05-24T04:10:03.572Z,5.56
2023-05-24T04:11:03.628Z,5.56
2023-05-24T04:12:03.588Z,5.56
2023-05-24T04:13:03.553Z,5.58
2023-05-24T04:14:03.542Z,5.58
2023-05-24T04:15:03.532Z,5.59
2023-05-24T04:16:03.505Z,5.59
2023-05-24T04:17:03.620Z,5.60
2023-05-24T04:18:03.657Z,5.62
2023-05-24T04:19:03.534Z,5.62
2023-05-24T04:20:03.491Z,5.60
2023-05-24T04:21:03.496Z,5.59
2023-05-24T04:22:03.447Z,5.60
2023-05-24T04:23:03.457Z,5.60
2023-05-24T04:24:03.453Z,5.59
2023-05-24T04:25:03.489Z,5.55
2023-05-24T04:26:03.401Z,5.52
2023-05-24T04:27:03.416Z,5.55
2023-05-24T04:28:03.386Z,5.55
2023-05-24T04:29:03.395Z,5.55
2023-05-24T04:30:03.389Z,5.56
2023-05-24T04:31:03.396Z,5.59
2023-05-24T04:32:03.337Z,5.59
2023-05-24T04:33:03.389Z,5.60
2023-05-24T04:34:03.335Z,5.60
2023-05-24T04:35:03.332Z,5.60
2023-05-24T04:36:03.355Z,5.58
2023-05-24T04:37:03.313Z,5.59
2023-05-24T04:38:03.285Z,5.62
2023-05-24T04:39:03.289Z,5.65
2023-05-24T04:40:03.354Z,5.69
2023-05-24T04:41:03.278Z,5.73
2023-05-24T04:42:03.265Z,5.77
2023-05-24T04:43:03.262Z,5.78
2023-05-24T04:44:03.226Z,5.85
2023-05-24T04:45:03.227Z,5.95
2023-05-24T04:46:03.200Z,6.05
2023-05-24T04:47:03.286Z,6.24
2023-05-24T04:48:03.227Z,6.45
2023-05-24T04:49:03.191Z,6.64
2023-05-24T04:50:03.162Z,6.79
2023-05-24T04:51:03.191Z,6.89
2023-05-24T04:52:03.152Z,6.97
2023-05-24T04:53:03.156Z,7.11
2023-05-24T04:54:03.152Z,7.32
2023-05-24T04:55:03.137Z,7.51
2023-05-24T04:56:03.125Z,7.67
2023-05-24T04:57:03.125Z,7.74
2023-05-24T04:58:03.097Z,7.89
2023-05-24T04:59:03.112Z,7.99
2023-05-24T05:00:03.092Z,8.04
2023-05-24T05:01:03.076Z,8.21
2023-05-24T05:02:03.068Z,8.28
2023-05-24T05:03:03.109Z,8.37
2023-05-24T05:04:03.058Z,8.47
2023-05-24T05:05:03.032Z,8.50
2023-05-24T05:06:03.012Z,8.50
2023-05-24T05:07:03.022Z,8.60
2023-05-24T05:08:02.990Z,8.68
2023-05-24T05:09:02.980Z,8.71
2023-05-24T05:10:02.983Z,8.68
2023-05-24T05:11:02.983Z,8.67
2023-05-24T05:12:02.967Z,8.75
2023-05-24T05:13:02.978Z,8.82
2023-05-24T05:14:02.907Z,8.91
2023-05-24T05:15:02.949Z,8.98
2023-05-24T05:16:02.883Z,9.10
2023-05-24T05:17:02.931Z,9.19
2023-05-24T05:18:02.961Z,9.24
2023-05-24T05:19:02.888Z,9.38
2023-05-24T05:20:02.889Z,9.49
2023-05-24T05:21:02.852Z,9.62
2023-05-24T05:22:02.838Z,9.65
2023-05-24T05:23:02.866Z,9.71
2023-05-24T05:24:02.819Z,9.81
2023-05-24T05:25:02.828Z,9.78
2023-05-24T05:26:02.833Z,9.88
2023-05-24T05:27:02.793Z,9.92
2023-05-24T05:28:02.792Z,10.02
2023-05-24T05:29:02.800Z,10.14
2023-05-24T05:30:02.766Z,10.32
2023-05-24T05:31:02.756Z,10.22
2023-05-24T05:32:02.823Z,10.07
2023-05-24T05:33:02.849Z,10.06
2023-05-24T05:34:02.696Z,10.25
2023-05-24T05:35:02.774Z,10.44
2023-05-24T05:36:02.695Z,10.60
2023-05-24T05:37:02.707Z,10.83
2023-05-24T05:38:02.674Z,10.91
2023-05-24T05:39:02.667Z,10.98
2023-05-24T05:40:02.629Z,11.06
2023-05-24T05:41:02.659Z,11.20
2023-05-24T05:42:02.640Z,11.30
2023-05-24T05:43:02.625Z,11.27
2023-05-24T05:44:02.614Z,11.26
2023-05-24T05:45:02.610Z,11.42
2023-05-24T05:46:02.630Z,11.38
2023-05-24T05:47:02.603Z,11.16
2023-05-24T05:48:02.594Z,11.23
2023-05-24T05:49:02.558Z,11.36
2023-05-24T05:50:02.534Z,11.60
2023-05-24T05:51:02.568Z,11.69
2023-05-24T05:52:02.517Z,11.84
2023-05-24T05:53:02.517Z,12.01
2023-05-24T05:54:02.530Z,12.04
2023-05-24T05:55:02.504Z,11.75
2023-05-24T05:56:02.497Z,11.81
2023-05-24T05:57:02.478Z,11.90
2023-05-24T05:58:02.448Z,11.94
2023-05-24T05:59:02.493Z,11.74
2023-05-24T06:00:02.572Z,11.79
2023-05-24T06:01:02.444Z,11.93
2023-05-24T06:02:02.418Z,12.00
2023-05-24T06:03:02.479Z,12.16
2023-05-24T06:04:02.443Z,11.93
2023-05-24T06:05:02.393Z,11.70
2023-05-24T06:06:02.399Z,11.60
2023-05-24T06:07:02.369Z,11.12
2023-05-24T06:08:02.344Z,11.11
2023-05-24T06:09:02.347Z,11.17
2023-05-24T06:10:02.506Z,11.12
2023-05-24T06:11:02.322Z,10.93
2023-05-24T06:12:02.351Z,10.94
2023-05-24T06:13:02.310Z,10.91
2023-05-24T06:14:02.287Z,10.73
2023-05-24T06:15:02.300Z,10.88
2023-05-24T06:16:02.311Z,11.13
2023-05-24T06:17:02.263Z,11.27
2023-05-24T06:18:02.429Z,11.45
2023-05-24T06:19:06.300Z,11.81
2023-05-24T06:20:02.283Z,11.78
2023-05-24T06:21:02.247Z,11.81
2023-05-24T06:22:02.183Z,11.97
2023-05-24T06:23:02.199Z,11.94
2023-05-24T06:24:02.207Z,11.87
2023-05-24T06:25:02.195Z,11.72
2023-05-24T06:26:02.142Z,11.30
2023-05-24T06:27:04.005Z,11.36
2023-05-24T06:28:02.129Z,10.93
2023-05-24T06:29:02.229Z,11.09
2023-05-24T06:30:02.137Z,11.19
2023-05-24T06:31:02.162Z,11.33
2023-05-24T06:32:02.094Z,11.38
2023-05-24T06:33:02.146Z,11.45
2023-05-24T06:34:04.375Z,11.53
2023-05-24T06:35:02.085Z,11.67
2023-05-24T06:36:02.064Z,11.62
2023-05-24T06:37:02.098Z,11.49
2023-05-24T06:38:02.038Z,11.41
2023-05-24T06:39:02.032Z,11.26
2023-05-24T06:40:02.036Z,11.28
2023-05-24T06:41:02.028Z,11.38
2023-05-24T06:42:02.068Z,11.30
2023-05-24T06:43:01.985Z,11.23
2023-05-24T06:44:01.988Z,11.35
2023-05-24T06:45:01.965Z,11.56
2023-05-24T06:46:01.926Z,11.78
2023-05-24T06:47:01.954Z,11.79
2023-05-24T06:48:02.051Z,11.66
2023-05-24T06:49:02.120Z,11.85
2023-05-24T06:50:01.891Z,12.12
2023-05-24T06:51:01.914Z,12.31
2023-05-24T06:52:01.870Z,12.56
2023-05-24T06:53:01.878Z,12.61
2023-05-24T06:54:01.883Z,12.74
2023-05-24T06:55:01.859Z,12.58
2023-05-24T06:56:01.831Z,12.56
2023-05-24T06:57:01.856Z,12.63
2023-05-24T06:58:01.801Z,12.63
2023-05-24T06:59:01.808Z,12.73
2023-05-24T07:00:01.851Z,12.88
2023-05-24T07:01:01.853Z,12.96
2023-05-24T07:02:03.719Z,12.99
2023-05-24T07:03:01.839Z,12.84
2023-05-24T07:04:01.784Z,12.84
2023-05-24T07:05:01.868Z,12.92
2023-05-24T07:06:01.786Z,13.07
2023-05-24T07:07:01.730Z,13.10
2023-05-24T07:08:01.696Z,13.28
2023-05-24T07:09:01.735Z,13.28
2023-05-24T07:10:01.677Z,13.21
2023-05-24T07:11:01.751Z,13.19
2023-05-24T07:12:01.712Z,13.29
2023-05-24T07:13:01.666Z,13.48
2023-05-24T07:14:01.646Z,13.63
2023-05-24T07:15:01.665Z,13.72
2023-05-24T07:16:01.614Z,13.59
2023-05-24T07:17:01.664Z,13.55
2023-05-24T07:18:01.729Z,13.47
2023-05-24T07:19:03.963Z,13.76
2023-05-24T07:20:01.763Z,13.93
2023-05-24T07:21:01.611Z,13.66
2023-05-24T07:22:01.543Z,13.22
2023-05-24T07:23:01.556Z,12.66
2023-05-24T07:24:01.561Z,12.34
2023-05-24T07:25:01.528Z,12.44
2023-05-24T07:26:01.503Z,12.44
2023-05-24T07:27:01.532Z,12.59
2023-05-24T07:28:01.479Z,12.55
2023-05-24T07:29:01.494Z,12.56
2023-05-24T07:30:01.506Z,12.73
2023-05-24T07:31:01.470Z,12.70
2023-05-24T07:32:01.507Z,12.59
2023-05-24T07:33:01.828Z,12.33
2023-05-24T07:34:01.410Z,12.19
2023-05-24T07:35:01.474Z,12.01
2023-05-24T07:36:01.441Z,12.31
2023-05-24T07:37:01.406Z,12.76
2023-05-24T07:38:01.365Z,13.16
2023-05-24T07:39:01.414Z,13.41
2023-05-24T07:40:01.352Z,13.59
2023-05-24T07:41:01.359Z,13.75
2023-05-24T07:42:01.392Z,13.43
2023-05-24T07:43:01.910Z,12.96
2023-05-24T07:44:01.304Z,13.09
2023-05-24T07:45:01.356Z,13.29
2023-05-24T07:46:01.324Z,13.19
2023-05-24T07:47:01.275Z,13.24
2023-05-24T07:48:01.375Z,13.10
2023-05-24T07:49:01.256Z,12.96
2023-05-24T07:50:01.262Z,12.73
2023-05-24T07:51:01.247Z,12.69
2023-05-24T07:52:01.238Z,12.98
2023-05-24T07:53:01.209Z,13.01
2023-05-24T07:54:01.278Z,12.94
2023-05-24T07:55:01.206Z,12.79
2023-05-24T07:56:01.196Z,12.99
2023-05-24T07:57:01.197Z,13.04
2023-05-24T07:58:01.220Z,12.95
2023-05-24T07:59:01.146Z,12.95
2023-05-24T08:00:01.233Z,12.96
2023-05-24T08:01:01.194Z,12.73
2023-05-24T08:02:01.206Z,12.41
2023-05-24T08:03:01.190Z,12.49
2023-05-24T08:04:01.202Z,12.61
2023-05-24T08:05:01.073Z,12.55
2023-05-24T08:06:01.116Z,12.58
2023-05-24T08:07:01.083Z,12.63
2023-05-24T08:08:01.073Z,12.69
2023-05-24T08:09:01.035Z,12.66
2023-05-24T08:10:01.049Z,12.49
2023-05-24T08:11:01.018Z,12.36
2023-05-24T08:12:01.054Z,12.48
2023-05-24T08:13:00.990Z,12.56
2023-05-24T08:14:01.007Z,12.52
2023-05-24T08:15:00.976Z,12.51
2023-05-24T08:16:00.998Z,12.79
2023-05-24T08:17:00.949Z,13.06
2023-05-24T08:18:01.006Z,13.17
2023-05-24T08:19:00.934Z,13.12
2023-05-24T08:20:00.980Z,13.14
2023-05-24T08:21:00.923Z,13.01
2023-05-24T08:22:00.924Z,12.73
2023-05-24T08:23:00.886Z,12.88
2023-05-24T08:24:00.909Z,12.79
2023-05-24T08:25:00.876Z,12.84
2023-05-24T08:26:00.894Z,12.95
2023-05-24T08:27:00.856Z,12.85
2023-05-24T08:28:00.943Z,12.73
2023-05-24T08:29:00.814Z,12.71
2023-05-24T08:30:00.854Z,12.71
2023-05-24T08:31:00.796Z,12.54
2023-05-24T08:32:00.835Z,12.41
2023-05-24T08:33:00.881Z,12.40
2023-05-24T08:34:00.792Z,12.38
2023-05-24T08:35:11.072Z,12.19
2023-05-24T08:36:00.789Z,12.04
2023-05-24T08:37:00.738Z,12.07
2023-05-24T08:38:00.746Z,12.07
2023-05-24T08:39:00.760Z,11.81
2023-05-24T08:40:00.742Z,11.75
2023-05-24T08:41:00.688Z,11.81
2023-05-24T08:42:09.195Z,12.01
2023-05-24T08:43:00.673Z,12.07
2023-05-24T08:44:00.685Z,12.15
2023-05-24T08:45:00.659Z,12.18
2023-05-24T08:46:00.710Z,12.26
2023-05-24T08:47:00.624Z,12.34
2023-05-24T08:48:00.815Z,12.40
2023-05-24T08:49:00.650Z,12.38
2023-05-24T08:50:00.625Z,12.33
2023-05-24T08:51:00.588Z,12.23
2023-05-24T08:52:00.618Z,12.04
2023-05-24T08:53:00.561Z,12.05
2023-05-24T08:54:00.593Z,12.13
2023-05-24T08:55:00.562Z,12.29
2023-05-24T08:56:00.551Z,12.44
2023-05-24T08:57:00.521Z,12.58
2023-05-24T08:58:00.544Z,12.66
2023-05-24T08:59:00.513Z,12.77
2023-05-24T09:00:00.532Z,13.17
2023-05-24T09:01:00.521Z,13.32
2023-05-24T09:02:00.533Z,13.35
2023-05-24T09:03:00.489Z,13.28
2023-05-24T09:04:00.524Z,13.50
2023-05-24T09:05:00.444Z,13.16
2023-05-24T09:06:00.474Z,12.99
2023-05-24T09:07:00.420Z,12.88
2023-05-24T09:08:00.423Z,12.74
2023-05-24T09:09:00.432Z,12.70
2023-05-24T09:10:00.435Z,12.84
2023-05-24T09:11:00.645Z,12.91
2023-05-24T09:12:00.421Z,13.21
2023-05-24T09:13:00.386Z,13.63
2023-05-24T09:14:00.372Z,14.06
2023-05-24T09:15:00.331Z,14.29
2023-05-24T09:16:00.431Z,14.17
2023-05-24T09:17:00.304Z,14.20
2023-05-24T09:18:00.357Z,14.24
2023-05-24T09:19:00.290Z,14.36
2023-05-24T09:20:00.553Z,14.54
2023-05-24T09:21:00.277Z,14.45
2023-05-24T09:22:00.291Z,14.08
2023-05-24T09:23:00.256Z,13.51
2023-05-24T09:24:00.273Z,13.54
2023-05-24T09:25:00.250Z,13.80
2023-05-24T09:26:00.282Z,14.21
2023-05-24T09:27:00.198Z,14.44
2023-05-24T09:28:00.212Z,14.93
2023-05-24T09:29:00.212Z,15.28
2023-05-24T09:30:00.279Z,15.60
2023-05-24T09:31:00.205Z,15.88
2023-05-24T09:32:00.259Z,15.86
2023-05-24T09:33:00.259Z,15.46
2023-05-24T09:34:00.174Z,15.46
2023-05-24T09:35:00.239Z,15.34
2023-05-24T09:36:00.183Z,15.13
2023-05-24T09:37:00.113Z,15.16
2023-05-24T09:38:00.450Z,15.05
2023-05-24T09:39:00.072Z,14.63
2023-05-24T09:40:00.168Z,14.57
2023-05-24T09:41:00.161Z,14.35
2023-05-24T09:42:00.098Z,14.05
2023-05-24T09:43:00.042Z,13.98
2023-05-24T09:44:00.050Z,13.79
2023-05-24T09:45:00.032Z,13.71
2023-05-24T09:46:00.033Z,13.94
2023-05-24T09:47:00.046Z,14.19
2023-05-24T09:48:00.120Z,14.45
2023-05-24T09:48:59.985Z,14.53
2023-05-24T09:49:59.990Z,14.56
2023-05-24T09:50:59.963Z,14.08
2023-05-24T09:52:00.050Z,13.80
2023-05-24T09:52:59.937Z,13.76
2023-05-24T09:53:59.971Z,13.98
2023-05-24T09:54:59.912Z,14.27
2023-05-24T09:55:59.926Z,14.23
2023-05-24T09:57:00.941Z,14.38
2023-05-24T09:57:59.900Z,14.46
2023-05-24T09:58:59.879Z,14.52
2023-05-24T10:00:06.456Z,14.42
2023-05-24T10:00:59.888Z,13.99
2023-05-24T10:01:59.872Z,13.73
2023-05-24T10:02:59.883Z,13.48
2023-05-24T10:03:59.953Z,13.44
2023-05-24T10:04:59.881Z,13.69
2023-05-24T10:05:59.848Z,13.86
2023-05-24T10:06:59.794Z,13.87
2023-05-24T10:07:59.846Z,13.90
2023-05-24T10:08:59.775Z,13.90
2023-05-24T10:09:59.796Z,14.17
2023-05-24T10:10:59.794Z,14.42
2023-05-24T10:11:59.792Z,14.74
2023-05-24T10:12:59.744Z,15.00
2023-05-24T10:13:59.752Z,15.20
2023-05-24T10:14:59.760Z,15.33
2023-05-24T10:15:59.732Z,15.43
2023-05-24T10:16:59.747Z,15.31
2023-05-24T10:17:59.803Z,15.03
2023-05-24T10:18:59.670Z,14.71
2023-05-24T10:19:59.742Z,14.44
2023-05-24T10:20:59.856Z,14.24
2023-05-24T10:21:59.685Z,14.19
2023-05-24T10:22:59.667Z,14.13
2023-05-24T10:23:59.665Z,14.34
2023-05-24T10:24:59.614Z,14.59
2023-05-24T10:25:59.636Z,14.75
2023-05-24T10:26:59.621Z,14.66
2023-05-24T10:27:59.628Z,14.61
2023-05-24T10:28:59.575Z,14.61
2023-05-24T10:29:59.656Z,14.91
2023-05-24T10:30:59.632Z,15.22
2023-05-24T10:31:59.571Z,15.30
2023-05-24T10:32:59.617Z,15.00
2023-05-24T10:34:07.166Z,15.15
2023-05-24T10:34:59.541Z,15.52
2023-05-24T10:35:59.556Z,15.85
2023-05-24T10:36:59.491Z,15.91
2023-05-24T10:37:59.524Z,16.16
2023-05-24T10:38:59.482Z,16.29
2023-05-24T10:39:59.520Z,16.11
2023-05-24T10:40:59.456Z,15.77
2023-05-24T10:41:59.522Z,15.44
2023-05-24T10:42:59.429Z,15.18
2023-05-24T10:44:09.530Z,15.15
2023-05-24T10:44:59.413Z,15.35
2023-05-24T10:45:59.463Z,15.41
2023-05-24T10:46:59.384Z,15.34
2023-05-24T10:47:59.439Z,15.34
2023-05-24T10:48:59.372Z,15.31
2023-05-24T10:49:59.382Z,15.19
2023-05-24T10:50:59.363Z,15.19
2023-05-24T10:51:59.349Z,15.19
2023-05-24T10:52:59.317Z,15.25
2023-05-24T10:53:59.329Z,15.20
2023-05-24T10:55:03.395Z,14.98
2023-05-24T10:55:59.340Z,15.00
2023-05-24T10:56:59.297Z,15.11
2023-05-24T10:57:59.290Z,15.27
2023-05-24T10:58:59.260Z,15.44
2023-05-24T10:59:59.269Z,15.56
2023-05-24T11:00:59.249Z,15.22
2023-05-24T11:01:59.335Z,15.03
2023-05-24T11:02:59.260Z,15.22
2023-05-24T11:03:59.224Z,15.38
2023-05-24T11:04:59.198Z,15.44
2023-05-24T11:05:59.320Z,15.33
2023-05-24T11:06:59.165Z,15.16
2023-05-24T11:07:59.169Z,15.31
2023-05-24T11:08:59.149Z,15.34
2023-05-24T11:09:59.180Z,15.41
2023-05-24T11:11:05.654Z,15.38
2023-05-24T11:11:59.140Z,15.62
2023-05-24T11:12:59.091Z,15.60
2023-05-24T11:13:59.114Z,15.59
2023-05-24T11:14:59.071Z,15.28
2023-05-24T11:15:59.099Z,15.44
2023-05-24T11:16:59.085Z,15.46
2023-05-24T11:17:59.096Z,15.49
2023-05-24T11:18:59.039Z,15.64
2023-05-24T11:19:59.048Z,15.71
2023-05-24T11:20:58.999Z,15.62
2023-05-24T11:21:59.282Z,15.56
2023-05-24T11:22:58.983Z,15.71
2023-05-24T11:23:59.019Z,15.80
2023-05-24T11:24:58.956Z,15.95
2023-05-24T11:25:58.967Z,15.88
2023-05-24T11:26:58.940Z,15.77
2023-05-24T11:27:59.008Z,15.78
2023-05-24T11:28:58.920Z,15.48
2023-05-24T11:29:58.936Z,15.05
2023-05-24T11:30:58.923Z,14.87
2023-05-24T11:31:58.940Z,15.04
2023-05-24T11:32:58.917Z,15.03
2023-05-24T11:33:58.920Z,14.94
2023-05-24T11:34:58.850Z,15.05
2023-05-24T11:35:58.864Z,15.23
2023-05-24T11:36:58.865Z,15.43
2023-05-24T11:37:58.850Z,15.33
2023-05-24T11:38:58.831Z,15.00
2023-05-24T11:39:58.845Z,15.05
2023-05-24T11:40:58.783Z,15.20
2023-05-24T11:41:58.793Z,15.33
2023-05-24T11:42:58.762Z,15.43
2023-05-24T11:43:58.774Z,15.52
2023-05-24T11:44:58.758Z,15.04
2023-05-24T11:45:58.813Z,14.69
2023-05-24T11:46:58.707Z,14.35
2023-05-24T11:47:58.811Z,14.26
2023-05-24T11:48:58.700Z,14.24
2023-05-24T11:49:58.709Z,14.48
2023-05-24T11:50:58.711Z,14.74
2023-05-24T11:51:58.685Z,14.91
2023-05-24T11:52:58.676Z,15.01
2023-05-24T11:53:58.670Z,15.20
2023-05-24T11:54:58.645Z,15.41
2023-05-24T11:55:58.661Z,15.44
2023-05-24T11:56:58.664Z,15.22
2023-05-24T11:57:58.637Z,15.13
2023-05-24T11:58:58.605Z,14.82
2023-05-24T11:59:58.614Z,14.72
2023-05-24T12:00:58.599Z,14.95
2023-05-24T12:01:58.612Z,15.30
2023-05-24T12:02:58.729Z,15.13
2023-05-24T12:03:58.642Z,15.11
2023-05-24T12:04:58.665Z,15.33
2023-05-24T12:05:58.523Z,15.71
2023-05-24T12:06:58.539Z,15.95
2023-05-24T12:07:58.505Z,16.07
2023-05-24T12:08:58.553Z,16.08
2023-05-24T12:09:58.678Z,15.84
2023-05-24T12:10:58.488Z,16.04
2023-05-24T12:11:58.993Z,16.03
2023-05-24T12:12:58.470Z,15.84
2023-05-24T12:13:58.465Z,15.89
2023-05-24T12:14:58.457Z,15.74
2023-05-24T12:15:58.439Z,15.78
2023-05-24T12:16:58.463Z,15.84
2023-05-24T12:17:58.402Z,15.35
2023-05-24T12:19:05.366Z,15.15
2023-05-24T12:19:58.404Z,14.98
2023-05-24T12:20:58.396Z,15.04
2023-05-24T12:21:58.346Z,15.04
2023-05-24T12:22:58.353Z,14.98
2023-05-24T12:23:58.328Z,14.82
2023-05-24T12:24:58.329Z,14.80
2023-05-24T12:25:58.305Z,14.80
2023-05-24T12:26:58.330Z,14.83
2023-05-24T12:27:58.280Z,14.69
2023-05-24T12:28:58.286Z,14.57
2023-05-24T12:29:58.253Z,14.48
2023-05-24T12:30:58.318Z,14.45
2023-05-24T12:31:58.227Z,14.48
2023-05-24T12:32:58.306Z,14.48
2023-05-24T12:33:58.225Z,14.52
2023-05-24T12:34:58.224Z,14.46
2023-05-24T12:35:58.211Z,14.53
2023-05-24T12:36:58.203Z,14.63
2023-05-24T12:37:58.789Z,14.72
2023-05-24T12:38:58.205Z,14.63
2023-05-24T12:39:58.147Z,14.63
2023-05-24T12:41:58.148Z,14.57
2023-05-24T12:42:58.154Z,14.71
2023-05-24T12:43:58.111Z,14.75
2023-05-24T12:44:58.150Z,14.78
2023-05-24T12:45:58.088Z,14.80
2023-05-24T12:46:58.147Z,14.82
2023-05-24T12:47:58.143Z,14.91
2023-05-24T12:48:58.107Z,14.94
2023-05-24T12:49:58.070Z,14.94
2023-05-24T12:50:58.092Z,14.97
2023-05-24T12:51:58.064Z,14.97
2023-05-24T12:52:58.060Z,15.12
2023-05-24T12:53:58.015Z,15.30
2023-05-24T12:54:58.034Z,15.48
2023-05-24T12:55:58.010Z,15.59
2023-05-24T12:56:58.034Z,15.49
2023-05-24T12:57:57.973Z,15.53
2023-05-24T12:58:58.033Z,15.56
2023-05-24T12:59:57.950Z,15.62
2023-05-24T13:00:58.004Z,15.53
2023-05-24T13:01:57.939Z,15.30
2023-05-24T13:02:57.996Z,15.43
2023-05-24T13:03:57.911Z,15.64